Time;durP1;ratioP1;P1;durP2;ratioP2;P2;SDS_P1;SDS_P2;PMS_P1;PMS_P2;Temp;Humidity;BMP_temperature;BMP_pressure;BME280_temperature;BME280_humidity;BME280_pressure;Samples;Min_cycle;Max_cycle;Signal;HPM_P1;HPM_P2
2021/05/07 00:00:42;;;;;;;0.30;0.30;;;13.90;71.10;;;;;;5039138;28;20064;-38
2021/05/07 00:03:08;;;;;;;0.50;0.50;;;13.90;71.10;;;;;;5041595;28;20075;-38
2021/05/07 00:05:34;;;;;;;0.47;0.47;;;13.90;71.10;;;;;;5039546;28;20032;-37
2021/05/07 00:07:59;;;;;;;1.02;0.60;;;13.90;71.10;;;;;;5047936;28;20466;-39
2021/05/07 00:10:26;;;;;;;0.30;0.30;;;14.00;71.10;;;;;;5034735;28;20088;-38
2021/05/07 00:12:52;;;;;;;0.57;0.50;;;13.90;71.10;;;;;;5035476;28;20130;-38
2021/05/07 00:15:20;;;;;;;0.60;0.60;;;13.90;71.10;;;;;;5034427;28;20120;-39
2021/05/07 00:17:45;;;;;;;0.43;0.43;;;13.90;71.10;;;;;;5053831;28;20045;-38
2021/05/07 00:20:12;;;;;;;0.68;0.47;;;13.90;71.80;;;;;;5041197;28;20140;-36
2021/05/07 00:22:40;;;;;;;0.60;0.50;;;13.90;71.10;;;;;;5050200;28;20069;-38
2021/05/07 00:25:08;;;;;;;0.43;0.43;;;13.90;71.20;;;;;;5034062;28;20050;-38
2021/05/07 00:27:33;;;;;;;0.40;0.40;;;13.90;71.20;;;;;;5034040;28;20045;-40
2021/05/07 00:29:59;;;;;;;0.57;0.50;;;13.90;71.20;;;;;;5034091;28;20048;-39
2021/05/07 00:32:25;;;;;;;0.55;0.50;;;13.90;71.30;;;;;;5052884;28;20559;-38
2021/05/07 00:34:50;;;;;;;0.57;0.57;;;13.90;71.20;;;;;;5052702;28;20060;-38
2021/05/07 00:37:16;;;;;;;0.77;0.50;;;13.90;71.20;;;;;;5053790;28;20401;-38
2021/05/07 00:39:42;;;;;;;0.40;0.40;;;13.90;71.20;;;;;;5051950;28;20041;-39
2021/05/07 00:42:09;;;;;;;0.40;0.40;;;13.80;71.10;;;;;;5043604;28;20053;-41
2021/05/07 00:44:35;;;;;;;0.57;0.43;;;13.90;71.20;;;;;;5034870;28;20460;-38
2021/05/07 00:47:05;;;;;;;0.50;0.50;;;13.90;71.20;;;;;;5046136;28;20053;-38
2021/05/07 00:49:35;;;;;;;0.60;0.60;;;13.90;71.20;;;;;;5053978;28;20056;-38
2021/05/07 00:52:05;;;;;;;0.75;0.65;;;13.80;71.20;;;;;;5053363;28;20056;-35
2021/05/07 00:54:35;;;;;;;0.50;0.50;;;13.90;71.20;;;;;;5042822;28;20057;-37
2021/05/07 00:57:02;;;;;;;0.50;0.50;;;13.90;71.30;;;;;;5033572;28;20054;-38
2021/05/07 00:59:28;;;;;;;0.57;0.57;;;13.90;71.20;;;;;;5038748;28;20116;-38
2021/05/07 01:01:54;;;;;;;0.65;0.65;;;13.90;71.20;;;;;;5038345;28;20136;-38
2021/05/07 01:04:20;;;;;;;1.05;0.50;;;13.90;71.30;;;;;;5033898;28;20041;-42
2021/05/07 01:06:46;;;;;;;0.52;0.50;;;13.90;71.30;;;;;;5052543;28;20045;-37
2021/05/07 01:09:12;;;;;;;0.50;0.50;;;13.80;71.20;;;;;;5053525;28;20049;-50
2021/05/07 01:11:39;;;;;;;0.50;0.50;;;13.90;71.20;;;;;;5042824;28;20489;-54
2021/05/07 01:14:05;;;;;;;0.60;0.60;;;13.90;71.30;;;;;;5053307;28;20045;-55
2021/05/07 01:16:32;;;;;;;0.68;0.45;;;13.80;71.20;;;;;;5051875;28;20102;-51
2021/05/07 01:19:03;;;;;;;0.50;0.50;;;13.80;71.20;;;;;;5053451;28;20055;-55
2021/05/07 01:21:29;;;;;;;0.82;0.60;;;13.80;71.20;;;;;;5044085;28;20490;-55
2021/05/07 01:23:55;;;;;;;0.82;0.65;;;13.80;71.20;;;;;;5049467;28;20095;-55
2021/05/07 01:26:21;;;;;;;0.90;0.50;;;13.80;71.30;;;;;;5049860;28;20037;-51
2021/05/07 01:28:47;;;;;;;0.50;0.50;;;13.80;71.20;;;;;;5033291;28;20061;-55
2021/05/07 01:31:13;;;;;;;0.68;0.60;;;13.80;71.20;;;;;;5042906;28;20515;-55
2021/05/07 01:33:39;;;;;;;0.50;0.50;;;13.80;71.20;;;;;;5051227;28;20095;-53
2021/05/07 01:36:05;;;;;;;0.60;0.60;;;13.80;71.20;;;;;;5052743;28;20124;-55
2021/05/07 01:38:31;;;;;;;0.60;0.60;;;13.80;71.30;;;;;;5034251;28;20058;-54
2021/05/07 01:40:57;;;;;;;0.40;0.40;;;13.80;71.30;;;;;;5033364;28;20056;-55
2021/05/07 01:43:23;;;;;;;0.40;0.40;;;13.80;71.30;;;;;;5050674;28;20049;-54
2021/05/07 01:45:49;;;;;;;0.60;0.60;;;13.80;71.30;;;;;;5051960;28;20137;-56
2021/05/07 01:48:15;;;;;;;1.48;0.80;;;13.80;71.30;;;;;;5033506;28;20597;-49
2021/05/07 01:50:43;;;;;;;0.68;0.50;;;13.80;71.30;;;;;;5037687;28;20052;-54
2021/05/07 01:53:10;;;;;;;0.77;0.60;;;13.80;71.30;;;;;;5053403;28;20505;-55
2021/05/07 01:55:38;;;;;;;0.52;0.52;;;13.80;71.30;;;;;;5048661;28;20038;-53
2021/05/07 01:58:06;;;;;;;0.93;0.65;;;13.80;71.30;;;;;;5045670;28;20053;-50
2021/05/07 02:00:32;;;;;;;0.65;0.60;;;13.80;71.30;;;;;;5050840;28;20074;-49
2021/05/07 02:03:00;;;;;;;1.55;0.50;;;13.80;71.30;;;;;;5047200;28;20038;-53
2021/05/07 02:05:28;;;;;;;0.60;0.60;;;13.80;71.30;;;;;;5044562;28;20052;-50
2021/05/07 02:07:55;;;;;;;0.82;0.50;;;13.80;71.30;;;;;;5052581;28;20045;-48
2021/05/07 02:10:27;;;;;;;0.60;0.60;;;13.80;71.30;;;;;;5041832;28;20478;-51
2021/05/07 02:12:54;;;;;;;0.65;0.65;;;13.70;71.20;;;;;;5043463;28;20059;-51
2021/05/07 02:15:21;;;;;;;0.60;0.60;;;13.80;71.30;;;;;;5052597;28;20132;-48
2021/05/07 02:17:48;;;;;;;0.50;0.50;;;13.80;71.30;;;;;;5033165;28;20054;-53
2021/05/07 02:20:15;;;;;;;0.40;0.40;;;13.80;71.30;;;;;;5043146;28;20434;-52
2021/05/07 02:22:42;;;;;;;0.60;0.60;;;13.70;71.20;;;;;;5033483;28;20053;-46
2021/05/07 02:25:09;;;;;;;0.40;0.40;;;13.80;71.30;;;;;;5032363;28;20049;-52
2021/05/07 02:27:35;;;;;;;0.60;0.60;;;13.80;71.30;;;;;;5051860;28;20053;-38
2021/05/07 02:30:01;;;;;;;0.80;0.60;;;13.80;71.30;;;;;;5036412;28;20474;-41
2021/05/07 02:32:26;;;;;;;0.40;0.40;;;13.80;71.30;;;;;;5033389;28;20525;-39
2021/05/07 02:34:53;;;;;;;0.40;0.40;;;13.80;71.30;;;;;;5032979;28;20046;-38
2021/05/07 02:37:19;;;;;;;0.40;0.40;;;13.80;71.30;;;;;;5032151;28;20061;-38
2021/05/07 02:39:44;;;;;;;0.52;0.52;;;13.80;71.30;;;;;;5032196;28;20050;-39
2021/05/07 02:42:10;;;;;;;0.38;0.38;;;13.80;71.20;;;;;;5050154;28;20070;-38
2021/05/07 02:44:36;;;;;;;0.40;0.40;;;13.80;71.30;;;;;;5051594;28;20045;-38
2021/05/07 02:47:04;;;;;;;0.40;0.40;;;13.80;71.30;;;;;;5040239;28;20037;-38
2021/05/07 02:49:31;;;;;;;0.38;0.38;;;13.80;71.30;;;;;;5032164;28;20133;-38
2021/05/07 02:51:57;;;;;;;0.63;0.60;;;13.70;71.30;;;;;;5033187;28;20045;-39
2021/05/07 02:54:23;;;;;;;0.38;0.32;;;13.70;71.30;;;;;;5037155;28;20106;-37
2021/05/07 02:56:49;;;;;;;0.40;0.40;;;13.70;71.40;;;;;;5051824;28;20490;-38
2021/05/07 02:59:16;;;;;;;0.35;0.35;;;13.70;71.30;;;;;;5049096;28;20052;-38
2021/05/07 03:01:42;;;;;;;0.40;0.40;;;13.70;71.30;;;;;;5035993;28;20049;-38
2021/05/07 03:04:08;;;;;;;0.32;0.30;;;13.70;71.30;;;;;;5037012;28;20095;-38
2021/05/07 03:06:34;;;;;;;0.50;0.50;;;13.60;71.30;;;;;;5035742;28;20092;-38
2021/05/07 03:09:00;;;;;;;0.70;0.40;;;13.70;71.30;;;;;;5043022;28;20109;-38
2021/05/07 03:11:26;;;;;;;0.63;0.50;;;13.70;71.30;;;;;;5055703;28;20080;-38
2021/05/07 03:13:53;;;;;;;0.25;0.25;;;13.70;71.30;;;;;;5053352;28;20041;-38
2021/05/07 03:16:21;;;;;;;0.60;0.60;;;13.70;71.30;;;;;;5055539;28;20150;-39
2021/05/07 03:18:48;;;;;;;0.40;0.40;;;13.70;71.30;;;;;;5051317;28;20037;-39
2021/05/07 03:21:14;;;;;;;0.52;0.50;;;13.70;71.30;;;;;;5044763;28;20132;-38
2021/05/07 03:23:39;;;;;;;0.60;0.50;;;13.70;72.00;;;;;;5055527;28;20119;-37
2021/05/07 03:26:05;;;;;;;0.40;0.40;;;13.70;71.30;;;;;;5053954;28;20466;-41
2021/05/07 03:28:33;;;;;;;0.40;0.40;;;13.70;71.30;;;;;;5037456;28;20045;-38
2021/05/07 03:30:59;;;;;;;0.30;0.30;;;13.70;71.30;;;;;;5037429;28;20132;-38
2021/05/07 03:33:25;;;;;;;0.40;0.40;;;13.70;71.30;;;;;;5036139;28;20049;-38
2021/05/07 03:35:50;;;;;;;0.43;0.40;;;13.70;71.30;;;;;;5042791;28;20404;-38
2021/05/07 03:38:16;;;;;;;0.40;0.40;;;13.70;71.30;;;;;;5055270;28;20041;-38
2021/05/07 03:40:42;;;;;;;1.02;0.50;;;13.70;71.30;;;;;;5048021;28;20037;-38
2021/05/07 03:43:08;;;;;;;0.63;0.50;;;13.70;71.30;;;;;;5034903;28;20057;-38
2021/05/07 03:45:33;;;;;;;0.30;0.30;;;13.70;71.30;;;;;;5035863;28;20040;-38
2021/05/07 03:47:59;;;;;;;0.40;0.40;;;13.70;71.30;;;;;;5034933;28;20045;-38
2021/05/07 03:50:24;;;;;;;0.77;0.47;;;13.70;71.40;;;;;;5037167;28;20045;-38
2021/05/07 03:52:50;;;;;;;0.50;0.50;;;13.70;71.40;;;;;;5054889;28;20124;-37
2021/05/07 03:55:16;;;;;;;0.40;0.40;;;13.70;71.40;;;;;;5052563;28;20484;-37
2021/05/07 03:57:42;;;;;;;0.50;0.50;;;13.70;71.30;;;;;;5035022;28;20482;-37
2021/05/07 04:00:10;;;;;;;0.40;0.40;;;13.70;71.40;;;;;;5034523;28;20049;-38
2021/05/07 04:02:39;;;;;;;0.45;0.45;;;13.70;71.30;;;;;;5050066;28;20133;-38
2021/05/07 04:05:05;;;;;;;0.40;0.35;;;13.70;71.30;;;;;;5051118;28;20057;-38
2021/05/07 04:07:31;;;;;;;0.77;0.50;;;13.70;72.00;;;;;;5053233;28;20132;-38
2021/05/07 04:10:12;;;;;;;0.30;0.30;;;13.70;71.40;;;;;;5054714;28;20485;-39
2021/05/07 04:15:11;;;;;;;0.40;0.40;;;13.70;71.40;;;;;;5054443;28;20378;-44
2021/05/07 04:17:36;;;;;;;1.00;0.40;;;13.60;71.30;;;;;;5052475;28;20108;-39
2021/05/07 04:20:03;;;;;;;0.50;0.40;;;13.70;71.30;;;;;;5054637;28;20087;-36
2021/05/07 04:22:29;;;;;;;0.40;0.40;;;13.60;71.30;;;;;;5049485;28;20051;-50
2021/05/07 04:24:55;;;;;;;1.05;0.40;;;13.60;71.30;;;;;;5034514;28;20045;-49
2021/05/07 04:27:20;;;;;;;0.40;0.40;;;13.60;71.30;;;;;;5049992;28;21629;-47
2021/05/07 04:29:47;;;;;;;0.40;0.40;;;13.70;71.30;;;;;;5035465;28;20049;-46
2021/05/07 04:32:13;;;;;;;0.55;0.55;;;13.60;71.30;;;;;;5051270;28;20061;-43
2021/05/07 04:34:38;;;;;;;0.38;0.38;;;13.60;71.30;;;;;;5034960;28;20065;-48
2021/05/07 04:37:04;;;;;;;0.30;0.30;;;13.70;71.40;;;;;;5054136;28;20461;-53
2021/05/07 04:39:30;;;;;;;0.50;0.50;;;13.70;71.30;;;;;;5039032;28;20091;-50
2021/05/07 04:41:56;;;;;;;0.43;0.32;;;13.60;71.30;;;;;;5043096;28;20454;-47
2021/05/07 04:44:21;;;;;;;0.43;0.43;;;13.60;71.30;;;;;;5034048;28;20053;-46
2021/05/07 04:46:47;;;;;;;0.40;0.40;;;13.60;71.30;;;;;;5035688;28;20060;-53
2021/05/07 04:49:13;;;;;;;0.65;0.63;;;13.60;71.30;;;;;;5040262;28;20044;-43
2021/05/07 04:51:39;;;;;;;0.40;0.40;;;13.60;71.30;;;;;;5053942;28;20045;-52
2021/05/07 04:54:05;;;;;;;0.45;0.40;;;13.60;71.30;;;;;;5053336;28;20084;-49
2021/05/07 04:56:31;;;;;;;0.63;0.43;;;13.60;71.30;;;;;;5041580;28;20059;-46
2021/05/07 04:58:57;;;;;;;1.00;0.40;;;13.60;71.30;;;;;;5034016;28;20143;-38
2021/05/07 05:01:23;;;;;;;0.32;0.32;;;13.60;71.30;;;;;;5041625;28;20052;-38
2021/05/07 05:03:49;;;;;;;0.50;0.50;;;13.60;71.30;;;;;;5037367;28;20084;-38
2021/05/07 05:06:16;;;;;;;1.02;0.47;;;13.60;71.30;;;;;;5033830;28;20472;-38
2021/05/07 05:08:42;;;;;;;1.77;0.40;;;13.60;71.30;;;;;;5033364;28;20068;-38
2021/05/07 05:11:07;;;;;;;0.50;0.40;;;13.60;71.30;;;;;;5034589;28;20386;-37
2021/05/07 05:13:33;;;;;;;0.55;0.55;;;13.70;71.30;;;;;;5033382;28;20045;-38
2021/05/07 05:15:59;;;;;;;0.32;0.32;;;13.60;71.40;;;;;;5033448;28;20137;-38
2021/05/07 05:18:32;;;;;;;0.43;0.40;;;13.60;71.40;;;;;;5033052;28;20054;-38
2021/05/07 05:21:00;;;;;;;0.40;0.40;;;13.60;71.40;;;;;;5034221;28;20060;-37
2021/05/07 05:23:28;;;;;;;0.63;0.40;;;13.60;71.40;;;;;;5032173;28;20054;-38
2021/05/07 05:25:54;;;;;;;1.13;0.40;;;13.60;71.40;;;;;;5033235;28;20481;-37
2021/05/07 05:28:21;;;;;;;0.40;0.40;;;13.60;71.40;;;;;;5033135;28;20127;-46
2021/05/07 05:30:48;;;;;;;0.40;0.40;;;13.60;71.40;;;;;;5033397;28;20049;-45
2021/05/07 05:33:14;;;;;;;0.32;0.30;;;13.60;71.40;;;;;;5033768;28;20111;-39
2021/05/07 05:35:40;;;;;;;0.50;0.50;;;13.60;71.70;;;;;;5033077;28;20046;-37
2021/05/07 05:38:06;;;;;;;0.30;0.30;;;13.60;71.40;;;;;;5034043;28;20473;-41
2021/05/07 05:40:32;;;;;;;0.25;0.25;;;13.60;71.50;;;;;;5033182;28;20049;-37
2021/05/07 05:42:58;;;;;;;0.20;0.20;;;13.60;71.50;;;;;;5033909;28;20478;-37
2021/05/07 05:45:25;;;;;;;0.30;0.30;;;13.60;71.50;;;;;;5033172;28;20077;-37
2021/05/07 05:48:00;;;;;;;0.50;0.50;;;13.60;71.50;;;;;;5032957;28;20140;-37
2021/05/07 05:50:25;;;;;;;0.20;0.20;;;13.60;71.50;;;;;;5032920;28;20095;-38
2021/05/07 05:52:51;;;;;;;0.65;0.40;;;13.60;71.50;;;;;;5034110;28;20049;-37
2021/05/07 05:55:17;;;;;;;0.43;0.30;;;13.60;71.50;;;;;;5032909;28;20049;-38
2021/05/07 05:57:43;;;;;;;0.38;0.38;;;13.60;71.50;;;;;;5032804;28;20057;-38
2021/05/07 06:00:09;;;;;;;0.20;0.20;;;13.60;71.50;;;;;;5033156;28;20555;-37
2021/05/07 06:02:35;;;;;;;0.38;0.38;;;13.60;72.20;;;;;;5038556;28;20044;-38
2021/05/07 06:05:01;;;;;;;0.20;0.20;;;13.50;71.50;;;;;;5041362;28;20105;-38
2021/05/07 06:07:28;;;;;;;0.40;0.40;;;13.60;71.50;;;;;;5034932;28;20056;-38
2021/05/07 06:09:53;;;;;;;0.40;0.40;;;13.60;71.50;;;;;;5052351;28;20482;-38
2021/05/07 06:12:19;;;;;;;0.35;0.35;;;13.70;71.60;;;;;;5052523;28;20182;-38
2021/05/07 06:14:45;;;;;;;0.40;0.40;;;13.60;71.60;;;;;;5052589;28;20068;-38
2021/05/07 06:17:10;;;;;;;0.65;0.65;;;13.60;71.60;;;;;;5033790;28;20053;-38
2021/05/07 06:19:43;;;;;;;0.57;0.57;;;13.60;71.60;;;;;;5050501;28;20045;-38
2021/05/07 06:22:09;;;;;;;0.40;0.40;;;13.60;71.60;;;;;;5051935;28;20048;-38
2021/05/07 06:24:34;;;;;;;0.40;0.40;;;13.60;71.60;;;;;;5052402;28;20049;-38
2021/05/07 06:27:00;;;;;;;0.30;0.30;;;13.60;71.60;;;;;;5052184;28;20048;-39
2021/05/07 06:29:26;;;;;;;0.38;0.38;;;13.60;71.60;;;;;;5052481;28;20054;-38
2021/05/07 06:31:53;;;;;;;0.30;0.30;;;13.60;71.60;;;;;;5050334;28;20064;-37
2021/05/07 06:34:19;;;;;;;0.40;0.40;;;13.60;71.60;;;;;;5051647;28;20087;-38
2021/05/07 06:36:44;;;;;;;0.30;0.30;;;13.60;71.60;;;;;;5052159;28;20444;-37
2021/05/07 06:39:10;;;;;;;0.32;0.32;;;13.60;71.60;;;;;;5051961;28;20102;-37
2021/05/07 06:41:35;;;;;;;0.30;0.30;;;13.60;71.60;;;;;;5050404;28;20036;-37
2021/05/07 06:44:01;;;;;;;0.40;0.40;;;13.60;71.60;;;;;;5051997;28;20064;-38
2021/05/07 06:46:27;;;;;;;0.50;0.50;;;13.60;71.60;;;;;;5037053;28;20505;-37
2021/05/07 06:48:53;;;;;;;0.40;0.40;;;13.60;71.70;;;;;;5032330;28;20399;-37
2021/05/07 06:51:18;;;;;;;0.47;0.47;;;13.60;71.60;;;;;;5031718;28;20056;-38
2021/05/07 06:53:44;;;;;;;0.30;0.30;;;13.60;71.60;;;;;;5038006;28;20517;-37
2021/05/07 06:56:10;;;;;;;0.35;0.35;;;13.60;71.60;;;;;;5042650;28;20482;-37
2021/05/07 06:58:37;;;;;;;1.02;0.35;;;13.60;71.60;;;;;;5034373;28;20510;-38
2021/05/07 07:01:03;;;;;;;0.50;0.50;;;13.60;71.60;;;;;;5031966;28;20458;-38
2021/05/07 07:03:29;;;;;;;0.50;0.22;;;13.60;71.60;;;;;;5043723;28;20409;-38
2021/05/07 07:05:54;;;;;;;0.40;0.40;;;13.60;71.60;;;;;;5034325;28;20045;-38
2021/05/07 07:08:20;;;;;;;0.30;0.30;;;13.70;71.60;;;;;;5032175;28;20402;-38
2021/05/07 07:10:46;;;;;;;0.22;0.22;;;13.60;71.60;;;;;;5031815;28;20057;-39
2021/05/07 07:13:11;;;;;;;0.30;0.30;;;13.60;71.60;;;;;;5032708;28;20457;-38
2021/05/07 07:15:37;;;;;;;0.38;0.38;;;13.60;71.60;;;;;;5031875;28;20045;-38
2021/05/07 07:18:03;;;;;;;0.30;0.30;;;13.60;71.60;;;;;;5031793;28;20412;-38
2021/05/07 07:20:30;;;;;;;0.38;0.30;;;13.70;71.70;;;;;;5031721;28;20455;-37
2021/05/07 07:23:00;;;;;;;0.30;0.30;;;13.70;71.60;;;;;;5031902;28;20128;-35
2021/05/07 07:25:26;;;;;;;3.15;1.40;;;13.70;71.60;;;;;;5032725;28;20072;-43
2021/05/07 07:27:52;;;;;;;0.95;0.75;;;13.70;71.40;;;;;;5031397;28;20141;-35
2021/05/07 07:30:19;;;;;;;0.80;0.77;;;13.80;71.10;;;;;;5031681;28;20526;-35
2021/05/07 07:32:45;;;;;;;0.60;0.60;;;13.80;70.90;;;;;;5013635;28;20540;-35
2021/05/07 07:35:12;;;;;;;0.80;0.80;;;13.80;70.80;;;;;;5032689;28;20050;-35
2021/05/07 07:37:37;;;;;;;0.75;0.73;;;13.90;70.70;;;;;;5031374;28;20093;-35
2021/05/07 07:40:05;;;;;;;5.97;0.82;;;13.80;70.70;;;;;;5031591;28;20054;-35
2021/05/07 07:42:30;;;;;;;0.98;0.50;;;13.90;70.80;;;;;;5013643;28;20447;-35
2021/05/07 07:44:56;;;;;;;0.63;0.60;;;13.90;70.80;;;;;;5032463;28;20096;-40
2021/05/07 07:47:22;;;;;;;1.88;0.60;;;13.90;71.00;;;;;;5040609;28;20037;-42
2021/05/07 07:49:48;;;;;;;0.60;0.57;;;13.90;71.00;;;;;;5054967;28;20049;-38
2021/05/07 07:52:15;;;;;;;0.80;0.80;;;13.90;71.10;;;;;;5054778;28;20045;-35
2021/05/07 07:54:40;;;;;;;0.82;0.77;;;13.80;71.10;;;;;;5055001;28;20132;-35
2021/05/07 07:57:06;;;;;;;0.70;0.47;;;13.90;71.30;;;;;;5053100;28;20120;-41
2021/05/07 07:59:33;;;;;;;0.70;0.70;;;13.90;71.20;;;;;;5054624;28;20045;-41
2021/05/07 08:02:00;;;;;;;0.68;0.60;;;13.90;71.30;;;;;;5054910;28;20045;-41
2021/05/07 08:04:26;;;;;;;1.15;0.70;;;13.90;71.30;;;;;;5054906;28;20259;-41
2021/05/07 08:06:51;;;;;;;3.97;1.83;;;13.90;71.30;;;;;;5052760;28;20153;-41
2021/05/07 08:09:17;;;;;;;1.38;1.27;;;13.90;70.70;;;;;;5054193;28;20041;-43
2021/05/07 08:11:43;;;;;;;1.45;1.02;;;13.90;70.50;;;;;;5054594;28;20071;-35
2021/05/07 08:14:09;;;;;;;2.00;1.00;;;13.90;70.30;;;;;;5054696;28;20053;-37
2021/05/07 08:16:34;;;;;;;2.10;1.30;;;13.90;70.20;;;;;;5054163;28;20053;-40
2021/05/07 08:19:00;;;;;;;2.80;1.10;;;13.90;70.10;;;;;;5042907;28;20064;-41
2021/05/07 08:21:28;;;;;;;1.98;0.98;;;13.90;70.10;;;;;;5054861;28;20102;-34
2021/05/07 08:23:55;;;;;;;1.45;1.05;;;13.90;70.10;;;;;;5043083;28;20061;-37
2021/05/07 08:26:21;;;;;;;1.98;1.05;;;14.00;70.20;;;;;;5034888;28;20084;-40
2021/05/07 08:28:47;;;;;;;1.15;1.00;;;14.00;70.30;;;;;;5034333;28;20076;-39
2021/05/07 08:31:13;;;;;;;1.45;0.90;;;14.00;70.40;;;;;;5034657;28;20120;-43
2021/05/07 08:33:40;;;;;;;2.15;1.50;;;14.00;70.60;;;;;;5034272;28;20068;-42
2021/05/07 08:36:06;;;;;;;0.95;0.95;;;14.00;70.70;;;;;;5042601;28;20050;-40
2021/05/07 08:38:31;;;;;;;0.80;0.80;;;14.00;70.80;;;;;;5034482;28;20075;-45
2021/05/07 08:41:02;;;;;;;1.58;1.02;;;14.00;70.90;;;;;;5034300;28;20049;-43
2021/05/07 08:43:28;;;;;;;0.80;0.80;;;14.10;71.10;;;;;;5034077;28;20462;-43
2021/05/07 08:45:54;;;;;;;1.25;0.90;;;14.10;71.10;;;;;;5034060;28;20168;-42
2021/05/07 08:48:20;;;;;;;1.30;1.00;;;14.10;71.10;;;;;;5033917;28;20056;-40
2021/05/07 08:50:51;;;;;;;1.00;0.80;;;14.10;71.10;;;;;;5034082;28;20048;-43
2021/05/07 08:53:17;;;;;;;0.80;0.80;;;14.10;71.10;;;;;;5033202;28;20081;-39
2021/05/07 08:55:44;;;;;;;0.70;0.70;;;14.10;71.10;;;;;;5061343;28;20072;-43
2021/05/07 08:58:10;;;;;;;1.20;0.60;;;14.10;71.10;;;;;;5052498;28;20100;-35
2021/05/07 09:00:36;;;;;;;0.75;0.70;;;14.20;71.10;;;;;;5053065;28;20114;-36
2021/05/07 09:03:06;;;;;;;0.70;0.70;;;14.20;71.00;;;;;;5053112;28;20485;-37
2021/05/07 09:05:35;;;;;;;0.63;0.63;;;14.20;70.90;;;;;;5053048;28;20083;-41
2021/05/07 09:08:01;;;;;;;0.80;0.80;;;14.20;70.90;;;;;;5045455;28;20057;-40
2021/05/07 09:10:41;;;;;;;0.80;0.70;;;14.20;70.90;;;;;;5032843;28;20052;-42
2021/05/07 09:13:09;;;;;;;1.38;0.70;;;14.20;70.80;;;;;;5032794;28;20052;-40
2021/05/07 09:15:44;;;;;;;0.68;0.68;;;14.30;70.80;;;;;;5033179;28;20046;-47
2021/05/07 09:18:11;;;;;;;0.85;0.70;;;14.30;70.70;;;;;;5032708;28;20049;-41
2021/05/07 09:20:42;;;;;;;0.60;0.60;;;14.30;70.70;;;;;;5033891;28;20047;-44
2021/05/07 09:23:11;;;;;;;0.68;0.68;;;14.30;70.60;;;;;;5032565;28;20046;-45
2021/05/07 09:25:39;;;;;;;0.85;0.55;;;14.30;70.50;;;;;;5032390;28;20045;-39
2021/05/07 09:28:09;;;;;;;0.80;0.63;;;14.30;70.50;;;;;;5032445;28;20045;-44
2021/05/07 09:30:36;;;;;;;0.60;0.60;;;14.30;70.40;;;;;;5029476;28;20045;-36
2021/05/07 09:33:06;;;;;;;1.05;0.70;;;14.40;70.40;;;;;;5048710;28;20463;-44
2021/05/07 09:35:32;;;;;;;0.65;0.63;;;14.40;70.30;;;;;;5048582;28;20076;-44
2021/05/07 09:38:00;;;;;;;0.60;0.60;;;14.40;70.30;;;;;;5048588;28;20505;-42
2021/05/07 09:40:26;;;;;;;0.45;0.45;;;14.40;70.20;;;;;;5048253;28;20580;-40
2021/05/07 09:43:10;;;;;;;0.52;0.52;;;14.50;70.20;;;;;;5047102;28;20103;-40
2021/05/07 09:45:37;;;;;;;0.50;0.50;;;14.40;70.10;;;;;;5048746;28;20052;-45
2021/05/07 09:48:15;;;;;;;0.52;0.50;;;14.50;70.10;;;;;;5047880;28;20057;-40
2021/05/07 09:50:41;;;;;;;0.70;0.55;;;14.50;70.10;;;;;;5048614;28;20051;-42
2021/05/07 09:53:29;;;;;;;0.55;0.50;;;14.50;70.00;;;;;;5046833;28;20057;-42
2021/05/07 09:56:03;;;;;;;0.60;0.57;;;14.50;70.00;;;;;;5048354;28;20045;-39
2021/05/07 09:58:29;;;;;;;0.40;0.40;;;14.50;70.00;;;;;;5048126;28;20049;-44
2021/05/07 10:00:56;;;;;;;0.70;0.60;;;14.50;69.90;;;;;;5048398;28;20100;-38
2021/05/07 10:03:23;;;;;;;0.45;0.43;;;14.50;69.90;;;;;;5046709;28;20052;-36
2021/05/07 10:05:49;;;;;;;1.10;0.50;;;14.60;69.90;;;;;;5048452;28;20151;-35
2021/05/07 10:08:15;;;;;;;0.73;0.60;;;14.60;69.80;;;;;;5048002;28;20144;-36
2021/05/07 10:10:43;;;;;;;0.40;0.40;;;14.60;69.80;;;;;;5047510;28;20056;-35
2021/05/07 10:13:14;;;;;;;0.40;0.40;;;14.60;69.70;;;;;;5046878;28;20051;-35
2021/05/07 10:15:41;;;;;;;0.45;0.35;;;14.80;69.80;;;;;;5047930;28;20071;-36
2021/05/07 10:18:08;;;;;;;0.75;0.60;;;14.70;69.70;;;;;;5047834;28;20049;-36
2021/05/07 10:20:43;;;;;;;0.52;0.45;;;14.70;69.60;;;;;;5048511;28;20048;-35
2021/05/07 10:23:17;;;;;;;1.33;0.73;;;14.70;69.60;;;;;;5048026;28;20545;-37
2021/05/07 10:25:54;;;;;;;0.40;0.40;;;14.70;69.60;;;;;;5030656;28;20528;-37
2021/05/07 10:28:20;;;;;;;0.65;0.32;;;14.80;69.60;;;;;;5028495;28;20080;-40
2021/05/07 10:30:46;;;;;;;0.52;0.52;;;14.80;69.60;;;;;;5028512;28;20120;-43
2021/05/07 10:33:16;;;;;;;1.27;0.52;;;14.80;69.50;;;;;;5027981;28;20215;-46
2021/05/07 10:35:47;;;;;;;0.52;0.43;;;14.80;69.40;;;;;;5039404;28;20439;-36
2021/05/07 10:38:15;;;;;;;0.75;0.40;;;14.80;69.40;;;;;;5047764;28;20057;-38
2021/05/07 10:40:42;;;;;;;0.40;0.40;;;14.80;69.40;;;;;;5047947;28;20357;-36
2021/05/07 10:43:09;;;;;;;0.38;0.38;;;14.80;69.30;;;;;;5047899;28;20084;-35
2021/05/07 10:45:42;;;;;;;0.40;0.38;;;14.80;69.20;;;;;;5046172;28;20045;-38
2021/05/07 10:48:18;;;;;;;1.27;0.40;;;14.90;69.30;;;;;;5047318;28;20052;-37
2021/05/07 10:50:45;;;;;;;0.50;0.40;;;14.90;69.20;;;;;;5047904;28;20517;-36
2021/05/07 10:53:26;;;;;;;0.50;0.50;;;14.90;69.20;;;;;;5047939;28;20056;-36
2021/05/07 10:55:52;;;;;;;0.52;0.40;;;14.90;69.10;;;;;;5048856;28;20050;-36
2021/05/07 10:58:34;;;;;;;0.57;0.50;;;14.90;69.20;;;;;;5051145;28;20044;-37
2021/05/07 11:01:00;;;;;;;0.35;0.35;;;14.90;69.10;;;;;;5051199;28;20049;-35
2021/05/07 11:03:26;;;;;;;0.40;0.40;;;14.90;69.10;;;;;;5051249;28;20045;-38
2021/05/07 11:05:52;;;;;;;1.27;0.50;;;15.00;69.10;;;;;;5051304;28;20060;-37
2021/05/07 11:08:19;;;;;;;0.40;0.38;;;15.00;69.00;;;;;;5049457;28;20489;-34
2021/05/07 11:10:48;;;;;;;0.50;0.50;;;15.00;69.00;;;;;;5043605;28;20139;-39
2021/05/07 11:13:14;;;;;;;0.30;0.30;;;15.00;68.90;;;;;;5055859;28;20072;-37
2021/05/07 11:15:40;;;;;;;0.35;0.35;;;15.10;68.90;;;;;;5051079;28;20044;-37
2021/05/07 11:18:10;;;;;;;0.82;0.52;;;15.00;68.80;;;;;;5048123;28;20122;-40
2021/05/07 11:20:41;;;;;;;0.30;0.30;;;15.10;68.90;;;;;;5036207;28;20072;-43
2021/05/07 11:23:10;;;;;;;0.52;0.40;;;15.00;68.80;;;;;;5033820;28;20049;-43
2021/05/07 11:25:37;;;;;;;0.70;0.30;;;15.10;68.80;;;;;;5033801;28;20053;-39
2021/05/07 11:28:11;;;;;;;0.30;0.30;;;15.10;68.80;;;;;;5037764;28;20421;-37
2021/05/07 11:30:57;;;;;;;0.30;0.30;;;15.10;68.70;;;;;;5054628;28;20045;-42
2021/05/07 11:33:25;;;;;;;0.40;0.40;;;15.10;68.70;;;;;;5053687;28;20065;-38
2021/05/07 11:36:13;;;;;;;1.08;0.40;;;15.10;68.70;;;;;;5054481;28;20049;-37
2021/05/07 11:38:40;;;;;;;0.47;0.47;;;15.20;68.70;;;;;;5047934;28;20046;-39
2021/05/07 11:41:24;;;;;;;0.47;0.40;;;15.20;68.70;;;;;;5066137;28;20057;-40
2021/05/07 11:43:54;;;;;;;0.45;0.28;;;15.20;68.60;;;;;;5056799;28;20053;-36
2021/05/07 11:46:21;;;;;;;0.43;0.40;;;15.20;68.60;;;;;;5033142;28;20486;-36
2021/05/07 11:48:49;;;;;;;0.30;0.30;;;15.20;68.50;;;;;;5034465;28;20046;-39
2021/05/07 11:51:15;;;;;;;0.30;0.30;;;15.20;68.50;;;;;;5044071;28;20049;-35
2021/05/07 11:53:42;;;;;;;0.32;0.32;;;15.20;68.50;;;;;;5061646;28;20136;-34
2021/05/07 11:56:22;;;;;;;0.40;0.40;;;15.20;68.50;;;;;;5054117;28;20048;-41
2021/05/07 11:58:49;;;;;;;0.40;0.40;;;15.30;68.50;;;;;;5046325;28;20072;-40
2021/05/07 12:01:17;;;;;;;1.05;0.40;;;15.30;68.50;;;;;;5033932;28;20050;-45
2021/05/07 12:03:43;;;;;;;0.52;0.40;;;15.30;68.50;;;;;;5034228;28;20137;-41
2021/05/07 12:06:28;;;;;;;0.40;0.40;;;15.30;68.40;;;;;;5034649;28;20053;-42
2021/05/07 12:08:55;;;;;;;0.50;0.40;;;15.30;68.40;;;;;;5033221;28;20057;-43
2021/05/07 12:11:21;;;;;;;0.63;0.40;;;15.30;68.40;;;;;;5037769;28;20069;-40
2021/05/07 12:13:48;;;;;;;0.43;0.40;;;15.30;68.30;;;;;;5034200;28;20044;-43
2021/05/07 12:16:15;;;;;;;0.82;0.40;;;15.30;68.30;;;;;;5044109;28;20123;-41
2021/05/07 12:18:52;;;;;;;0.45;0.45;;;15.30;68.30;;;;;;5054684;28;20041;-41
2021/05/07 12:21:18;;;;;;;0.40;0.40;;;15.30;68.30;;;;;;5053950;28;20128;-41
2021/05/07 12:23:49;;;;;;;0.57;0.32;;;15.30;68.20;;;;;;5034417;28;20091;-41
2021/05/07 12:26:16;;;;;;;0.30;0.30;;;15.30;68.20;;;;;;5016404;28;20045;-42
2021/05/07 12:28:59;;;;;;;0.43;0.35;;;15.30;68.20;;;;;;5034223;28;20061;-40
2021/05/07 12:31:31;;;;;;;0.52;0.45;;;15.30;68.20;;;;;;5032845;28;20485;-39
2021/05/07 12:33:57;;;;;;;0.40;0.40;;;15.40;68.20;;;;;;5028371;28;20059;-37
2021/05/07 12:36:24;;;;;;;0.30;0.30;;;15.40;68.20;;;;;;5053671;28;20053;-34
2021/05/07 12:38:53;;;;;;;0.40;0.40;;;15.40;68.20;;;;;;5054182;28;20052;-35
2021/05/07 12:41:20;;;;;;;0.40;0.40;;;15.30;68.20;;;;;;5053980;28;20069;-35
2021/05/07 12:43:50;;;;;;;0.30;0.30;;;15.40;68.20;;;;;;5051976;28;20075;-35
2021/05/07 12:46:17;;;;;;;0.52;0.40;;;15.40;68.10;;;;;;5047052;28;20049;-36
2021/05/07 12:48:47;;;;;;;0.28;0.28;;;15.40;68.20;;;;;;5033631;28;20144;-35
2021/05/07 12:51:13;;;;;;;1.73;0.50;;;15.40;68.10;;;;;;5033510;28;20046;-36